createdAt,value
2019-02-22T00:01:16.450Z,9.20
2019-02-22T00:03:44.750Z,9.18
2019-02-22T00:06:13.165Z,9.18
2019-02-22T00:08:41.461Z,9.18
2019-02-22T00:11:09.784Z,9.19
2019-02-22T00:13:38.048Z,9.14
2019-02-22T00:16:06.414Z,9.19
2019-02-22T00:18:34.725Z,9.18
2019-02-22T00:21:03.758Z,9.18
2019-02-22T00:23:32.060Z,9.15
2019-02-22T00:26:00.308Z,9.15
2019-02-22T00:28:28.601Z,9.16
2019-02-22T00:30:56.858Z,9.18
2019-02-22T00:33:25.771Z,9.17
2019-02-22T00:35:54.106Z,9.13
2019-02-22T00:38:22.451Z,9.16
2019-02-22T00:40:51.383Z,9.14
2019-02-22T00:43:19.665Z,9.15
2019-02-22T00:45:47.916Z,9.15
2019-02-22T00:48:16.313Z,9.16
2019-02-22T00:50:45.188Z,9.14
2019-02-22T00:53:13.441Z,9.16
2019-02-22T00:55:41.764Z,9.16
2019-02-22T00:58:10.089Z,9.17
2019-02-22T01:00:38.344Z,9.14
2019-02-22T01:03:06.665Z,9.14
2019-02-22T01:05:34.964Z,9.12
2019-02-22T01:08:03.221Z,9.13
2019-02-22T01:10:31.674Z,9.15
2019-02-22T01:13:00.023Z,9.15
2019-02-22T01:15:28.343Z,9.13
2019-02-22T01:17:56.637Z,9.11
2019-02-22T01:20:24.967Z,9.13
2019-02-22T01:22:53.252Z,9.11
2019-02-22T01:25:21.564Z,9.12
2019-02-22T01:27:50.521Z,9.12
2019-02-22T01:30:18.827Z,9.11
2019-02-22T01:32:47.082Z,9.13
2019-02-22T01:35:15.453Z,9.13
2019-02-22T01:37:43.765Z,9.13
2019-02-22T01:40:12.037Z,9.12
2019-02-22T01:42:40.399Z,9.12
2019-02-22T01:45:08.753Z,9.13
2019-02-22T01:47:37.134Z,9.13
2019-02-22T01:50:06.431Z,9.13
2019-02-22T01:52:34.727Z,9.14
2019-02-22T01:55:03.053Z,9.14
2019-02-22T01:57:31.298Z,9.13
2019-02-22T01:59:59.593Z,9.15
2019-02-22T02:02:27.880Z,9.14
2019-02-22T02:04:56.191Z,9.16
2019-02-22T02:07:24.463Z,9.16
2019-02-22T02:09:52.719Z,9.16
2019-02-22T02:12:20.989Z,9.16
2019-02-22T02:14:49.286Z,9.16
2019-02-22T02:17:17.933Z,9.18
2019-02-22T02:19:46.304Z,9.18
2019-02-22T02:22:14.742Z,9.20
2019-02-22T02:24:43.019Z,9.20
2019-02-22T02:27:11.270Z,9.19
2019-02-22T02:29:39.553Z,9.20
2019-02-22T02:32:08.084Z,9.19
2019-02-22T02:34:36.491Z,9.17
2019-02-22T02:37:04.745Z,9.14
2019-02-22T02:39:33.028Z,9.16
2019-02-22T02:42:01.457Z,9.17
2019-02-22T02:44:29.719Z,9.20
2019-02-22T02:46:57.986Z,9.20
2019-02-22T02:49:26.380Z,9.22
2019-02-22T02:51:54.700Z,9.20
2019-02-22T02:54:22.984Z,9.21
2019-02-22T02:56:51.317Z,9.26
2019-02-22T02:59:19.625Z,9.24
2019-02-22T03:01:47.944Z,9.23
2019-02-22T03:04:16.197Z,9.24
2019-02-22T03:06:47.847Z,9.24
2019-02-22T03:09:16.104Z,9.23
2019-02-22T03:11:44.382Z,9.23
2019-02-22T03:14:12.754Z,9.21
2019-02-22T03:16:41.129Z,9.22
2019-02-22T03:19:09.436Z,9.22
2019-02-22T03:21:38.033Z,9.21
2019-02-22T03:24:06.318Z,9.21
2019-02-22T03:26:34.717Z,9.21
2019-02-22T03:29:03.054Z,9.21
2019-02-22T03:31:31.321Z,9.23
2019-02-22T03:33:59.635Z,9.22
2019-02-22T03:36:27.893Z,9.24
2019-02-22T03:38:56.159Z,9.25
2019-02-22T03:41:33.001Z,9.27
2019-02-22T03:43:54.467Z,9.26
2019-02-22T03:46:22.746Z,9.28
2019-02-22T03:48:51.089Z,9.28
2019-02-22T03:51:19.438Z,9.30
2019-02-22T03:53:48.960Z,9.29
2019-02-22T03:56:17.226Z,9.29
2019-02-22T03:58:45.586Z,9.28
2019-02-22T04:01:13.903Z,9.25
2019-02-22T04:03:42.201Z,9.25
2019-02-22T04:06:10.471Z,9.27
2019-02-22T04:08:38.779Z,9.28
2019-02-22T04:11:07.059Z,9.29
2019-02-22T04:13:35.664Z,9.27
2019-02-22T04:16:03.927Z,9.27
2019-02-22T04:18:32.227Z,9.27
2019-02-22T04:21:01.517Z,9.25
2019-02-22T04:23:29.768Z,9.27
2019-02-22T04:25:58.088Z,9.28
2019-02-22T04:28:26.364Z,9.27
2019-02-22T04:30:54.690Z,9.27
2019-02-22T04:33:22.994Z,9.27
2019-02-22T04:35:51.370Z,9.27
2019-02-22T04:38:19.661Z,9.27
2019-02-22T04:40:47.910Z,9.28
2019-02-22T04:43:16.193Z,9.28
2019-02-22T04:45:44.505Z,9.27
2019-02-22T04:48:12.778Z,9.27
2019-02-22T04:50:41.033Z,9.26
2019-02-22T04:53:09.444Z,9.26
2019-02-22T04:55:37.696Z,9.26
2019-02-22T04:58:05.959Z,9.27
2019-02-22T05:00:34.273Z,9.27
2019-02-22T05:03:02.556Z,9.27
2019-02-22T05:05:31.019Z,9.28
2019-02-22T05:07:59.425Z,9.27
2019-02-22T05:10:27.677Z,9.28
2019-02-22T05:12:55.939Z,9.28
2019-02-22T05:15:24.275Z,9.27
2019-02-22T05:17:52.545Z,9.28
2019-02-22T05:20:20.798Z,9.29
2019-02-22T05:22:49.073Z,9.29
2019-02-22T05:25:17.338Z,9.27
2019-02-22T05:27:45.640Z,9.27
2019-02-22T05:30:13.894Z,9.27
2019-02-22T05:32:42.164Z,9.29
2019-02-22T05:35:10.510Z,9.27
2019-02-22T05:37:38.759Z,9.27
2019-02-22T05:40:07.092Z,9.28
2019-02-22T05:42:35.401Z,9.28
2019-02-22T05:45:05.485Z,9.28
2019-02-22T05:47:33.780Z,9.27
2019-02-22T05:50:02.040Z,9.26
2019-02-22T05:52:31.072Z,9.25
2019-02-22T05:54:59.427Z,9.24
2019-02-22T05:57:27.723Z,9.25
2019-02-22T05:59:56.108Z,9.26
2019-02-22T06:02:24.375Z,9.26
2019-02-22T06:04:52.627Z,9.27
2019-02-22T06:07:20.913Z,9.26
2019-02-22T06:09:49.242Z,9.25
2019-02-22T06:12:18.545Z,9.24
2019-02-22T06:14:47.002Z,9.25
2019-02-22T06:17:15.319Z,9.24
2019-02-22T06:19:43.693Z,9.23
2019-02-22T06:22:12.206Z,9.23
2019-02-22T06:24:40.476Z,9.24
2019-02-22T06:27:08.738Z,9.24
2019-02-22T06:29:37.016Z,9.26
2019-02-22T06:32:05.272Z,9.26
2019-02-22T06:34:34.354Z,9.25
2019-02-22T06:37:02.659Z,9.26
2019-02-22T06:39:30.939Z,9.26
2019-02-22T06:41:59.329Z,9.26
2019-02-22T06:44:27.655Z,9.28
2019-02-22T06:46:55.943Z,9.27
2019-02-22T06:49:25.838Z,9.27
2019-02-22T06:51:54.150Z,9.27
2019-02-22T06:54:22.415Z,9.26
2019-02-22T06:56:50.689Z,9.27
2019-02-22T06:59:18.968Z,9.25
2019-02-22T07:01:49.873Z,9.25
2019-02-22T07:04:17.290Z,9.26
2019-02-22T07:06:45.675Z,9.25
2019-02-22T07:09:13.945Z,9.24
2019-02-22T07:11:46.568Z,9.26
2019-02-22T07:14:14.881Z,9.28
2019-02-22T07:16:43.280Z,9.28
2019-02-22T07:19:11.495Z,9.28
2019-02-22T07:21:51.832Z,9.28
2019-02-22T07:24:09.835Z,9.29
2019-02-22T07:26:38.094Z,9.29
2019-02-22T07:29:06.340Z,9.30
2019-02-22T07:31:34.662Z,9.31
2019-02-22T07:34:02.968Z,9.30
2019-02-22T07:36:31.230Z,9.29
2019-02-22T07:38:59.514Z,9.32
2019-02-22T07:41:27.799Z,9.30
2019-02-22T07:43:56.168Z,9.32
2019-02-22T07:46:24.452Z,9.32
2019-02-22T07:48:52.771Z,9.32
2019-02-22T07:51:21.031Z,9.33
2019-02-22T07:53:49.353Z,9.34
2019-02-22T07:56:19.199Z,9.34
2019-02-22T07:58:47.556Z,9.35
2019-02-22T08:01:15.857Z,9.35
2019-02-22T08:03:44.102Z,9.33
2019-02-22T08:06:12.390Z,9.34
2019-02-22T08:08:40.681Z,9.35
2019-02-22T08:11:08.956Z,9.37
2019-02-22T08:13:37.440Z,9.39
2019-02-22T08:16:05.684Z,9.40
2019-02-22T08:18:33.972Z,9.41
2019-02-22T08:21:02.571Z,9.40
2019-02-22T08:23:30.832Z,9.42
2019-02-22T08:25:59.167Z,9.46
2019-02-22T08:28:27.431Z,9.48
2019-02-22T08:30:55.697Z,9.52
2019-02-22T08:33:23.992Z,9.56
2019-02-22T08:35:52.296Z,9.58
2019-02-22T08:38:20.616Z,9.59
2019-02-22T08:40:49.541Z,9.59
2019-02-22T08:43:17.879Z,9.62
2019-02-22T08:45:46.187Z,9.64
2019-02-22T08:48:14.439Z,9.61
2019-02-22T08:50:42.714Z,9.58
2019-02-22T08:53:10.986Z,9.56
2019-02-22T08:55:39.296Z,9.57
2019-02-22T08:58:07.557Z,9.58
2019-02-22T09:00:36.454Z,9.59
2019-02-22T09:03:04.710Z,9.61
2019-02-22T09:05:32.966Z,9.63
2019-02-22T09:08:01.349Z,9.59
2019-02-22T09:10:29.611Z,9.63
2019-02-22T09:12:57.883Z,9.65
2019-02-22T09:15:26.162Z,9.69
2019-02-22T09:17:55.381Z,9.71
2019-02-22T09:20:23.794Z,9.72
2019-02-22T09:22:52.110Z,9.71
2019-02-22T09:25:20.357Z,9.75
2019-02-22T09:27:48.644Z,9.78
2019-02-22T09:30:16.963Z,9.82
2019-02-22T09:32:45.339Z,9.86
2019-02-22T09:35:13.951Z,9.90
2019-02-22T09:37:42.199Z,9.95
2019-02-22T09:40:14.380Z,9.98
2019-02-22T09:42:42.062Z,10.03
2019-02-22T09:45:11.909Z,10.09
2019-02-22T09:47:40.218Z,10.09
2019-02-22T09:50:11.267Z,10.15
2019-02-22T09:52:39.526Z,10.19
2019-02-22T09:55:09.841Z,10.23
2019-02-22T09:57:38.178Z,10.23
2019-02-22T10:00:10.090Z,10.26
2019-02-22T10:02:38.320Z,10.30
2019-02-22T10:05:08.551Z,10.36
2019-02-22T10:07:36.835Z,10.36
2019-02-22T10:10:07.517Z,10.28
2019-02-22T10:12:35.772Z,10.33
2019-02-22T10:15:04.901Z,10.34
2019-02-22T10:17:34.015Z,10.36
2019-02-22T10:20:02.338Z,10.35
2019-02-22T10:22:30.673Z,10.40
2019-02-22T10:24:58.993Z,10.39
2019-02-22T10:27:27.291Z,10.45
2019-02-22T10:29:55.589Z,10.47
2019-02-22T10:32:23.933Z,10.53
2019-02-22T10:34:52.257Z,10.58
2019-02-22T10:37:20.508Z,10.60
2019-02-22T10:39:48.996Z,10.63
2019-02-22T10:42:17.328Z,10.68
2019-02-22T10:44:45.680Z,10.66
2019-02-22T10:47:14.002Z,10.68
2019-02-22T10:49:42.302Z,10.69
2019-02-22T10:52:10.627Z,10.67
2019-02-22T10:54:38.949Z,10.69
2019-02-22T10:57:07.291Z,10.66
2019-02-22T10:59:35.544Z,10.64
2019-02-22T11:02:03.818Z,10.69
2019-02-22T11:04:32.115Z,10.74
2019-02-22T11:07:00.538Z,10.78
2019-02-22T11:09:28.827Z,10.81
2019-02-22T11:11:57.088Z,10.85
2019-02-22T11:14:29.174Z,10.89
2019-02-22T11:16:55.500Z,10.91
2019-02-22T11:19:23.816Z,10.87
2019-02-22T11:21:52.099Z,10.89
2019-02-22T11:24:20.387Z,10.92
2019-02-22T11:26:48.676Z,10.96
2019-02-22T11:29:16.954Z,10.99
2019-02-22T11:31:45.264Z,10.97
2019-02-22T11:34:13.589Z,10.95
2019-02-22T11:36:41.897Z,10.94
2019-02-22T11:39:10.164Z,10.94
2019-02-22T11:41:38.475Z,10.83
2019-02-22T11:44:08.437Z,10.85
2019-02-22T11:46:36.749Z,10.88
2019-02-22T11:49:05.003Z,10.92
2019-02-22T11:51:34.050Z,10.99
2019-02-22T11:54:02.282Z,10.87
2019-02-22T11:56:30.586Z,10.84
2019-02-22T11:58:58.870Z,10.84
2019-02-22T12:01:27.141Z,10.86
2019-02-22T12:03:55.434Z,10.92
2019-02-22T12:06:23.796Z,10.95
2019-02-22T12:08:52.307Z,10.98
2019-02-22T12:11:20.610Z,10.97
2019-02-22T12:13:48.936Z,10.98
2019-02-22T12:16:17.217Z,11.00
2019-02-22T12:18:45.529Z,11.07
2019-02-22T12:21:13.860Z,11.15
2019-02-22T12:23:42.133Z,11.20
2019-02-22T12:26:10.388Z,11.21
2019-02-22T12:28:38.668Z,11.22
2019-02-22T12:31:07.007Z,11.22
2019-02-22T12:33:35.248Z,11.18
2019-02-22T12:36:04.584Z,11.15
2019-02-22T12:38:32.876Z,11.13
2019-02-22T12:41:01.184Z,11.07
2019-02-22T12:43:29.521Z,10.97
2019-02-22T12:45:57.816Z,10.95
2019-02-22T12:48:26.066Z,10.93
2019-02-22T12:50:55.026Z,10.92
2019-02-22T12:53:23.321Z,10.86
2019-02-22T12:55:51.777Z,10.77
2019-02-22T12:58:20.030Z,10.67
2019-02-22T13:00:48.281Z,10.60
2019-02-22T13:03:16.572Z,10.63
2019-02-22T13:05:44.881Z,10.62
2019-02-22T13:08:13.189Z,10.57
2019-02-22T13:10:41.458Z,10.51
2019-02-22T13:13:10.071Z,10.47
2019-02-22T13:15:38.416Z,10.51
2019-02-22T13:18:06.720Z,10.43
2019-02-22T13:20:35.020Z,10.43
2019-02-22T13:23:03.353Z,10.46
2019-02-22T13:25:31.607Z,10.44
2019-02-22T13:27:59.865Z,10.33
2019-02-22T13:30:28.243Z,10.26
2019-02-22T13:32:56.519Z,10.29
2019-02-22T13:35:24.822Z,10.28
2019-02-22T13:37:53.140Z,10.35
2019-02-22T13:40:21.436Z,10.39
2019-02-22T13:42:49.926Z,10.46
2019-02-22T13:45:26.777Z,10.52
2019-02-22T13:47:48.274Z,10.54
2019-02-22T13:50:17.673Z,10.58
2019-02-22T13:52:45.969Z,10.53
2019-02-22T13:55:14.496Z,10.58
2019-02-22T13:57:43.384Z,10.56
2019-02-22T14:00:17.755Z,10.49
2019-02-22T14:02:46.085Z,10.50
2019-02-22T14:05:14.378Z,10.51
2019-02-22T14:07:51.420Z,10.49
2019-02-22T14:10:20.268Z,10.51
2019-02-22T14:12:49.090Z,10.52
2019-02-22T14:15:18.838Z,10.55
2019-02-22T14:17:48.224Z,10.55
2019-02-22T14:20:16.466Z,10.55
2019-02-22T14:22:44.899Z,10.55
2019-02-22T14:25:13.197Z,10.60
2019-02-22T14:27:41.462Z,10.62
2019-02-22T14:30:12.594Z,10.64
2019-02-22T14:32:40.906Z,10.66
2019-02-22T14:35:09.161Z,10.70
2019-02-22T14:37:37.454Z,10.68
2019-02-22T14:40:10.921Z,10.69
2019-02-22T14:42:39.224Z,10.67
2019-02-22T14:45:09.260Z,10.64
2019-02-22T14:47:37.538Z,10.62
2019-02-22T14:50:09.090Z,10.63
2019-02-22T14:52:37.388Z,10.62
2019-02-22T14:55:07.095Z,10.64
2019-02-22T14:57:35.396Z,10.68
2019-02-22T15:00:06.178Z,10.67
2019-02-22T15:02:34.474Z,10.64
2019-02-22T15:05:02.915Z,10.58
2019-02-22T15:07:31.163Z,10.56
2019-02-22T15:09:59.470Z,10.58
2019-02-22T15:12:27.938Z,10.57
2019-02-22T15:14:56.491Z,10.58
2019-02-22T15:17:27.428Z,10.57
2019-02-22T15:19:56.049Z,10.56
2019-02-22T15:22:24.311Z,10.54
2019-02-22T15:24:53.789Z,10.54
2019-02-22T15:27:22.258Z,10.51
2019-02-22T15:29:50.676Z,10.53
2019-02-22T15:32:18.928Z,10.56
2019-02-22T15:34:47.361Z,10.55
2019-02-22T15:37:15.641Z,10.59
2019-02-22T15:39:43.946Z,10.60
2019-02-22T15:42:12.248Z,10.61
2019-02-22T15:44:40.491Z,10.63
2019-02-22T15:47:12.017Z,10.65
2019-02-22T15:49:38.858Z,10.65
2019-02-22T15:52:07.113Z,10.69
2019-02-22T15:54:35.440Z,10.69
2019-02-22T15:57:03.694Z,10.69
2019-02-22T15:59:31.986Z,10.70
2019-02-22T16:02:00.261Z,10.72
2019-02-22T16:04:45.351Z,10.70
2019-02-22T16:07:13.737Z,10.70
2019-02-22T16:09:42.051Z,10.68
2019-02-22T16:12:10.419Z,10.66
2019-02-22T16:14:38.731Z,10.63
2019-02-22T16:17:07.350Z,10.64
2019-02-22T16:19:35.652Z,10.62
2019-02-22T16:22:03.956Z,10.61
2019-02-22T16:24:32.207Z,10.55
2019-02-22T16:27:03.202Z,10.52
2019-02-22T16:29:31.546Z,10.52
2019-02-22T16:31:59.972Z,10.51
2019-02-22T16:34:28.270Z,10.51
2019-02-22T16:36:56.607Z,10.45
2019-02-22T16:39:24.918Z,10.45
2019-02-22T16:41:53.182Z,10.44
2019-02-22T16:44:21.470Z,10.44
2019-02-22T16:46:49.774Z,10.40
2019-02-22T16:49:18.184Z,10.38
2019-02-22T16:51:46.491Z,10.35
2019-02-22T16:54:14.771Z,10.33
2019-02-22T16:56:43.187Z,10.32
2019-02-22T16:59:11.443Z,10.30
2019-02-22T17:01:39.844Z,10.28
2019-02-22T17:04:08.130Z,10.27
2019-02-22T17:06:36.403Z,10.26
2019-02-22T17:09:05.214Z,10.25
2019-02-22T17:11:33.476Z,10.24
2019-02-22T17:14:01.920Z,10.21
2019-02-22T17:16:30.184Z,10.20
2019-02-22T17:18:58.442Z,10.19
2019-02-22T17:21:26.770Z,10.18
2019-02-22T17:23:55.119Z,10.17
2019-02-22T17:26:23.416Z,10.17
2019-02-22T17:28:51.703Z,10.13
2019-02-22T17:31:20.012Z,10.12
2019-02-22T17:33:48.568Z,10.09
2019-02-22T17:36:26.468Z,10.04
2019-02-22T17:38:47.027Z,10.03
2019-02-22T17:41:15.326Z,10.01
2019-02-22T17:43:43.631Z,9.99
2019-02-22T17:46:11.973Z,9.98
2019-02-22T17:48:40.234Z,9.93
2019-02-22T17:51:08.493Z,9.95
2019-02-22T17:53:36.843Z,9.91
2019-02-22T17:56:05.100Z,9.89
2019-02-22T17:58:33.798Z,9.85
2019-02-22T18:01:02.414Z,9.86
2019-02-22T18:03:30.674Z,9.84
2019-02-22T18:05:58.997Z,9.82
2019-02-22T18:08:27.296Z,9.81
2019-02-22T18:10:55.548Z,9.79
2019-02-22T18:13:23.803Z,9.77
2019-02-22T18:15:52.119Z,9.69
2019-02-22T18:18:22.018Z,9.67
2019-02-22T18:20:50.651Z,9.66
2019-02-22T18:23:19.692Z,9.65
2019-02-22T18:25:47.998Z,9.59
2019-02-22T18:28:16.301Z,9.58
2019-02-22T18:30:44.551Z,9.60
2019-02-22T18:33:12.897Z,9.57
2019-02-22T18:35:41.149Z,9.57
2019-02-22T18:38:12.269Z,9.56
2019-02-22T18:40:40.572Z,9.56
2019-02-22T18:43:08.823Z,9.51
2019-02-22T18:45:37.100Z,9.50
2019-02-22T18:48:05.466Z,9.48
2019-02-22T18:50:33.748Z,9.48
2019-02-22T18:53:02.262Z,9.45
2019-02-22T18:55:30.544Z,9.42
2019-02-22T18:57:58.836Z,9.41
2019-02-22T19:00:27.169Z,9.39
2019-02-22T19:02:55.474Z,9.40
2019-02-22T19:05:23.759Z,9.35
2019-02-22T19:07:52.031Z,9.30
2019-02-22T19:10:20.457Z,9.32
2019-02-22T19:12:48.879Z,9.30
2019-02-22T19:15:17.245Z,9.29
2019-02-22T19:17:45.675Z,9.29
2019-02-22T19:20:16.177Z,9.29
2019-02-22T19:22:44.438Z,9.24
2019-02-22T19:25:13.032Z,9.22
2019-02-22T19:27:41.737Z,9.19
2019-02-22T19:30:15.636Z,9.16
2019-02-22T19:32:44.013Z,9.12
2019-02-22T19:35:12.291Z,9.09
2019-02-22T19:37:40.956Z,9.05
2019-02-22T19:40:12.067Z,9.05
2019-02-22T19:42:40.807Z,9.00
2019-02-22T19:45:11.209Z,8.94
2019-02-22T19:47:42.086Z,8.90
2019-02-22T19:50:11.766Z,8.87
2019-02-22T19:52:40.092Z,8.84
2019-02-22T19:55:11.308Z,8.81
2019-02-22T19:57:40.014Z,8.77
2019-02-22T20:00:15.372Z,8.73
2019-02-22T20:02:44.142Z,8.73
2019-02-22T20:05:13.504Z,8.71
2019-02-22T20:07:42.182Z,8.67
2019-02-22T20:10:17.835Z,8.71
2019-02-22T20:12:44.274Z,8.69
2019-02-22T20:15:14.751Z,8.66
2019-02-22T20:17:53.321Z,8.67
2019-02-22T20:20:15.827Z,8.64
2019-02-22T20:22:44.247Z,8.65
2019-02-22T20:25:12.985Z,8.59
2019-02-22T20:27:41.825Z,8.57
2019-02-22T20:30:16.182Z,8.53
2019-02-22T20:32:44.449Z,8.50
2019-02-22T20:35:22.519Z,8.50
2019-02-22T20:37:53.044Z,8.46
2019-02-22T20:40:21.340Z,8.42
2019-02-22T20:42:49.807Z,8.38
2019-02-22T20:45:18.530Z,8.37
2019-02-22T20:47:46.857Z,8.33
2019-02-22T20:50:15.273Z,8.26
2019-02-22T20:52:43.558Z,8.29
2019-02-22T20:55:12.059Z,8.31
2019-02-22T20:57:40.312Z,8.28
2019-02-22T21:00:11.609Z,8.29
2019-02-22T21:02:40.342Z,8.26
2019-02-22T21:05:10.270Z,8.23
2019-02-22T21:07:38.591Z,8.24
2019-02-22T21:10:10.288Z,8.22
2019-02-22T21:12:38.781Z,8.19
2019-02-22T21:15:10.654Z,8.18
2019-02-22T21:17:39.438Z,8.13
2019-02-22T21:20:13.349Z,8.12
2019-02-22T21:22:41.669Z,8.07
2019-02-22T21:25:11.224Z,8.02
2019-02-22T21:27:39.622Z,8.02
2019-02-22T21:30:13.899Z,8.00
2019-02-22T21:32:42.215Z,7.96
2019-02-22T21:35:10.576Z,7.92
2019-02-22T21:37:40.245Z,7.84
2019-02-22T21:40:10.261Z,7.82
2019-02-22T21:42:38.526Z,7.78
2019-02-22T21:45:10.064Z,7.73
2019-02-22T21:47:38.322Z,7.70
2019-02-22T21:50:14.518Z,7.65
2019-02-22T21:52:42.820Z,7.63
2019-02-22T21:55:12.441Z,7.61
2019-02-22T21:57:40.710Z,7.52
2019-02-22T22:00:23.650Z,7.45
2019-02-22T22:02:51.937Z,7.39
2019-02-22T22:05:21.269Z,7.35
2019-02-22T22:07:49.707Z,7.29
2019-02-22T22:10:18.041Z,7.22
2019-02-22T22:12:46.317Z,7.17
2019-02-22T22:15:15.669Z,7.11
2019-02-22T22:17:44.035Z,7.04
2019-02-22T22:20:12.318Z,6.89
2019-02-22T22:22:40.566Z,6.82
2019-02-22T22:25:11.277Z,6.77
2019-02-22T22:27:39.584Z,6.67
2019-02-22T22:30:10.481Z,6.61
2019-02-22T22:32:38.795Z,6.61
2019-02-22T22:35:14.721Z,6.54
2019-02-22T22:37:42.998Z,6.45
2019-02-22T22:40:11.320Z,6.38
2019-02-22T22:42:39.597Z,6.33
2019-02-22T22:45:10.539Z,6.28
2019-02-22T22:47:38.814Z,6.22
2019-02-22T22:50:10.301Z,6.15
2019-02-22T22:52:38.605Z,6.09
2019-02-22T22:55:08.295Z,6.05
2019-02-22T22:57:36.590Z,5.94
2019-02-22T23:00:25.847Z,5.83
2019-02-22T23:02:54.225Z,5.81
2019-02-22T23:05:22.534Z,5.71
2019-02-22T23:07:50.784Z,5.59
2019-02-22T23:10:19.112Z,5.59
2019-02-22T23:12:47.478Z,5.55
2019-02-22T23:15:15.754Z,5.46
2019-02-22T23:17:44.023Z,5.39
2019-02-22T23:20:12.355Z,5.39
2019-02-22T23:22:40.660Z,5.33
2019-02-22T23:25:08.913Z,5.27
2019-02-22T23:27:37.162Z,5.27
2019-02-22T23:30:07.101Z,5.17
2019-02-22T23:32:35.352Z,5.11
2019-02-22T23:35:04.412Z,5.08
2019-02-22T23:37:32.684Z,5.08
2019-02-22T23:40:01.066Z,5.02
2019-02-22T23:42:29.346Z,5.00
2019-02-22T23:44:57.634Z,5.00
2019-02-22T23:47:25.955Z,4.95
2019-02-22T23:49:54.218Z,4.90
2019-02-22T23:52:22.743Z,4.79
2019-02-22T23:54:50.990Z,4.80
2019-02-22T23:57:19.272Z,4.80
2019-02-22T23:59:47.561Z,4.78
